sensor_id;sensor_type;location;lat;lon;timestamp;P1;durP1;ratioP1;P2;durP2;ratioP2
44764;SDS011;30484;52.382;5.260;2023-03-24T00:01:24;17.23;;;5.65;;
44764;SDS011;30484;52.382;5.260;2023-03-24T00:03:53;16.60;;;6.13;;
44764;SDS011;30484;52.382;5.260;2023-03-24T00:06:22;16.40;;;6.20;;
44764;SDS011;30484;52.382;5.260;2023-03-24T00:08:53;15.93;;;6.32;;
44764;SDS011;30484;52.382;5.260;2023-03-24T00:11:21;15.57;;;5.72;;
44764;SDS011;30484;52.382;5.260;2023-03-24T00:13:51;18.13;;;6.57;;
44764;SDS011;30484;52.382;5.260;2023-03-24T00:16:23;13.52;;;5.47;;
44764;SDS011;30484;52.382;5.260;2023-03-24T00:18:52;15.85;;;6.28;;
44764;SDS011;30484;52.382;5.260;2023-03-24T00:21:21;18.63;;;5.57;;
44764;SDS011;30484;52.382;5.260;2023-03-24T00:23:52;11.63;;;5.38;;
44764;SDS011;30484;52.382;5.260;2023-03-24T00:26:24;18.88;;;6.50;;
44764;SDS011;30484;52.382;5.260;2023-03-24T00:28:53;17.10;;;6.03;;
44764;SDS011;30484;52.382;5.260;2023-03-24T00:31:22;12.63;;;5.70;;
44764;SDS011;30484;52.382;5.260;2023-03-24T00:33:51;13.57;;;5.68;;
44764;SDS011;30484;52.382;5.260;2023-03-24T00:36:20;19.98;;;6.00;;
44764;SDS011;30484;52.382;5.260;2023-03-24T00:38:51;18.90;;;5.97;;
44764;SDS011;30484;52.382;5.260;2023-03-24T00:41:22;11.63;;;5.60;;
44764;SDS011;30484;52.382;5.260;2023-03-24T00:43:53;20.55;;;5.60;;
44764;SDS011;30484;52.382;5.260;2023-03-24T00:46:24;16.50;;;6.03;;
44764;SDS011;30484;52.382;5.260;2023-03-24T00:48:57;14.07;;;5.40;;
44764;SDS011;30484;52.382;5.260;2023-03-24T00:51:32;20.05;;;6.07;;
44764;SDS011;30484;52.382;5.260;2023-03-24T00:54:08;17.08;;;5.88;;
44764;SDS011;30484;52.382;5.260;2023-03-24T00:56:39;19.27;;;5.85;;
44764;SDS011;30484;52.382;5.260;2023-03-24T00:59:09;17.85;;;5.90;;
44764;SDS011;30484;52.382;5.260;2023-03-24T01:01:39;13.25;;;5.50;;
44764;SDS011;30484;52.382;5.260;2023-03-24T01:04:08;12.75;;;5.78;;
44764;SDS011;30484;52.382;5.260;2023-03-24T01:06:37;11.68;;;5.72;;
44764;SDS011;30484;52.382;5.260;2023-03-24T01:09:07;20.38;;;5.63;;
44764;SDS011;30484;52.382;5.260;2023-03-24T01:11:38;15.88;;;5.55;;
44764;SDS011;30484;52.382;5.260;2023-03-24T01:14:07;14.35;;;5.30;;
44764;SDS011;30484;52.382;5.260;2023-03-24T01:16:38;12.52;;;5.57;;
44764;SDS011;30484;52.382;5.260;2023-03-24T01:19:07;13.02;;;5.60;;
44764;SDS011;30484;52.382;5.260;2023-03-24T01:21:37;14.13;;;4.95;;
44764;SDS011;30484;52.382;5.260;2023-03-24T01:24:09;14.05;;;4.78;;
44764;SDS011;30484;52.382;5.260;2023-03-24T01:26:38;12.93;;;5.60;;
44764;SDS011;30484;52.382;5.260;2023-03-24T01:29:07;11.23;;;5.28;;
44764;SDS011;30484;52.382;5.260;2023-03-24T01:31:35;10.20;;;5.22;;
44764;SDS011;30484;52.382;5.260;2023-03-24T01:34:04;13.70;;;5.07;;
44764;SDS011;30484;52.382;5.260;2023-03-24T01:36:33;9.00;;;4.72;;
44764;SDS011;30484;52.382;5.260;2023-03-24T01:39:01;14.63;;;5.07;;
44764;SDS011;30484;52.382;5.260;2023-03-24T01:41:33;10.55;;;4.80;;
44764;SDS011;30484;52.382;5.260;2023-03-24T01:47:02;9.40;;;5.00;;
44764;SDS011;30484;52.382;5.260;2023-03-24T01:49:34;11.52;;;4.75;;
44764;SDS011;30484;52.382;5.260;2023-03-24T01:52:06;9.98;;;4.68;;
44764;SDS011;30484;52.382;5.260;2023-03-24T01:54:40;11.63;;;5.22;;
44764;SDS011;30484;52.382;5.260;2023-03-24T01:57:19;14.98;;;5.22;;
44764;SDS011;30484;52.382;5.260;2023-03-24T01:59:52;11.52;;;5.18;;
44764;SDS011;30484;52.382;5.260;2023-03-24T02:02:23;9.88;;;4.65;;
44764;SDS011;30484;52.382;5.260;2023-03-24T02:04:53;9.30;;;5.10;;
44764;SDS011;30484;52.382;5.260;2023-03-24T02:07:30;9.75;;;5.18;;
44764;SDS011;30484;52.382;5.260;2023-03-24T02:10:01;12.98;;;5.68;;
44764;SDS011;30484;52.382;5.260;2023-03-24T02:12:35;13.95;;;5.47;;
44764;SDS011;30484;52.382;5.260;2023-03-24T02:15:03;10.43;;;5.35;;
44764;SDS011;30484;52.382;5.260;2023-03-24T02:17:49;8.98;;;4.85;;
44764;SDS011;30484;52.382;5.260;2023-03-24T02:20:41;10.95;;;5.10;;
44764;SDS011;30484;52.382;5.260;2023-03-24T02:30:55;9.15;;;4.20;;
44764;SDS011;30484;52.382;5.260;2023-03-24T02:37:21;6.80;;;2.88;;
44764;SDS011;30484;52.382;5.260;2023-03-24T02:40:39;7.60;;;2.65;;
44764;SDS011;30484;52.382;5.260;2023-03-24T02:43:15;6.85;;;2.30;;
44764;SDS011;30484;52.382;5.260;2023-03-24T02:45:58;6.85;;;1.95;;
44764;SDS011;30484;52.382;5.260;2023-03-24T02:48:42;6.57;;;1.48;;
44764;SDS011;30484;52.382;5.260;2023-03-24T02:51:26;10.45;;;1.77;;
44764;SDS011;30484;52.382;5.260;2023-03-24T02:54:06;8.38;;;1.80;;
44764;SDS011;30484;52.382;5.260;2023-03-24T02:56:43;10.57;;;2.20;;
44764;SDS011;30484;52.382;5.260;2023-03-24T02:59:20;6.07;;;1.38;;
44764;SDS011;30484;52.382;5.260;2023-03-24T03:01:59;7.05;;;1.75;;
44764;SDS011;30484;52.382;5.260;2023-03-24T03:04:35;10.95;;;1.95;;
44764;SDS011;30484;52.382;5.260;2023-03-24T03:07:12;10.77;;;1.95;;
44764;SDS011;30484;52.382;5.260;2023-03-24T03:09:43;11.90;;;2.13;;
44764;SDS011;30484;52.382;5.260;2023-03-24T03:12:19;12.38;;;2.10;;
44764;SDS011;30484;52.382;5.260;2023-03-24T03:14:53;8.98;;;2.10;;
44764;SDS011;30484;52.382;5.260;2023-03-24T03:17:29;12.48;;;2.00;;
44764;SDS011;30484;52.382;5.260;2023-03-24T03:20:03;14.13;;;2.42;;
44764;SDS011;30484;52.382;5.260;2023-03-24T03:22:40;13.05;;;2.33;;
44764;SDS011;30484;52.382;5.260;2023-03-24T03:25:15;20.27;;;2.60;;
44764;SDS011;30484;52.382;5.260;2023-03-24T03:27:50;18.75;;;2.75;;
44764;SDS011;30484;52.382;5.260;2023-03-24T03:30:25;10.45;;;2.50;;
44764;SDS011;30484;52.382;5.260;2023-03-24T03:33:04;16.58;;;1.95;;
44764;SDS011;30484;52.382;5.260;2023-03-24T03:35:37;12.35;;;2.20;;
44764;SDS011;30484;52.382;5.260;2023-03-24T03:38:12;13.98;;;1.85;;
44764;SDS011;30484;52.382;5.260;2023-03-24T03:40:49;12.02;;;1.88;;
44764;SDS011;30484;52.382;5.260;2023-03-24T03:43:23;9.23;;;1.77;;
44764;SDS011;30484;52.382;5.260;2023-03-24T03:45:53;15.45;;;1.83;;
44764;SDS011;30484;52.382;5.260;2023-03-24T03:48:22;12.68;;;2.00;;
44764;SDS011;30484;52.382;5.260;2023-03-24T03:50:52;13.90;;;1.80;;
44764;SDS011;30484;52.382;5.260;2023-03-24T03:53:40;11.10;;;2.33;;
44764;SDS011;30484;52.382;5.260;2023-03-24T03:56:14;14.30;;;2.20;;
44764;SDS011;30484;52.382;5.260;2023-03-24T03:58:47;17.67;;;2.75;;
44764;SDS011;30484;52.382;5.260;2023-03-24T04:01:16;8.60;;;2.33;;
44764;SDS011;30484;52.382;5.260;2023-03-24T04:03:50;14.05;;;2.33;;
44764;SDS011;30484;52.382;5.260;2023-03-24T04:06:44;11.90;;;1.83;;
44764;SDS011;30484;52.382;5.260;2023-03-24T04:09:27;15.05;;;2.20;;
44764;SDS011;30484;52.382;5.260;2023-03-24T04:12:08;20.20;;;2.92;;
44764;SDS011;30484;52.382;5.260;2023-03-24T04:15:12;14.90;;;2.42;;
44764;SDS011;30484;52.382;5.260;2023-03-24T04:18:03;19.35;;;2.65;;
44764;SDS011;30484;52.382;5.260;2023-03-24T04:20:58;20.92;;;2.50;;
44764;SDS011;30484;52.382;5.260;2023-03-24T04:23:46;12.07;;;1.75;;
44764;SDS011;30484;52.382;5.260;2023-03-24T04:26:29;9.80;;;1.98;;
44764;SDS011;30484;52.382;5.260;2023-03-24T04:29:08;15.30;;;2.33;;
44764;SDS011;30484;52.382;5.260;2023-03-24T04:31:47;16.77;;;2.45;;
44764;SDS011;30484;52.382;5.260;2023-03-24T04:34:20;20.50;;;2.67;;
44764;SDS011;30484;52.382;5.260;2023-03-24T04:36:55;17.08;;;2.40;;
44764;SDS011;30484;52.382;5.260;2023-03-24T04:39:32;15.40;;;2.13;;
44764;SDS011;30484;52.382;5.260;2023-03-24T04:42:06;22.52;;;2.80;;
44764;SDS011;30484;52.382;5.260;2023-03-24T04:47:11;20.48;;;2.38;;
44764;SDS011;30484;52.382;5.260;2023-03-24T04:49:39;16.33;;;2.88;;
44764;SDS011;30484;52.382;5.260;2023-03-24T04:52:08;29.83;;;3.13;;
44764;SDS011;30484;52.382;5.260;2023-03-24T04:54:36;18.52;;;3.03;;
44764;SDS011;30484;52.382;5.260;2023-03-24T04:57:05;19.42;;;2.85;;
44764;SDS011;30484;52.382;5.260;2023-03-24T04:59:34;23.23;;;3.40;;
44764;SDS011;30484;52.382;5.260;2023-03-24T05:02:02;25.55;;;2.83;;
44764;SDS011;30484;52.382;5.260;2023-03-24T05:04:33;26.42;;;3.38;;
44764;SDS011;30484;52.382;5.260;2023-03-24T05:07:02;23.55;;;3.50;;
44764;SDS011;30484;52.382;5.260;2023-03-24T05:09:31;21.90;;;3.17;;
44764;SDS011;30484;52.382;5.260;2023-03-24T05:11:59;21.02;;;2.72;;
44764;SDS011;30484;52.382;5.260;2023-03-24T05:14:28;26.77;;;3.42;;
44764;SDS011;30484;52.382;5.260;2023-03-24T05:16:56;23.73;;;3.17;;
44764;SDS011;30484;52.382;5.260;2023-03-24T05:19:25;24.75;;;3.38;;
44764;SDS011;30484;52.382;5.260;2023-03-24T05:21:59;29.90;;;3.78;;
44764;SDS011;30484;52.382;5.260;2023-03-24T05:24:29;33.28;;;3.83;;
44764;SDS011;30484;52.382;5.260;2023-03-24T05:27:02;28.55;;;4.55;;
44764;SDS011;30484;52.382;5.260;2023-03-24T05:29:32;23.98;;;2.92;;
44764;SDS011;30484;52.382;5.260;2023-03-24T05:32:01;31.98;;;4.43;;
44764;SDS011;30484;52.382;5.260;2023-03-24T05:34:30;26.15;;;3.88;;
44764;SDS011;30484;52.382;5.260;2023-03-24T05:37:00;34.42;;;3.92;;
44764;SDS011;30484;52.382;5.260;2023-03-24T05:39:29;28.80;;;3.40;;
44764;SDS011;30484;52.382;5.260;2023-03-24T05:41:58;35.78;;;4.22;;
44764;SDS011;30484;52.382;5.260;2023-03-24T05:44:27;44.70;;;4.60;;
44764;SDS011;30484;52.382;5.260;2023-03-24T05:46:56;38.25;;;4.15;;
44764;SDS011;30484;52.382;5.260;2023-03-24T05:49:24;40.20;;;5.03;;
44764;SDS011;30484;52.382;5.260;2023-03-24T05:51:53;33.40;;;4.40;;
44764;SDS011;30484;52.382;5.260;2023-03-24T05:54:23;39.78;;;4.60;;
44764;SDS011;30484;52.382;5.260;2023-03-24T05:56:51;38.55;;;5.47;;
44764;SDS011;30484;52.382;5.260;2023-03-24T05:59:20;40.42;;;4.70;;
44764;SDS011;30484;52.382;5.260;2023-03-24T06:01:48;50.78;;;5.97;;
44764;SDS011;30484;52.382;5.260;2023-03-24T06:04:18;34.35;;;4.75;;
44764;SDS011;30484;52.382;5.260;2023-03-24T06:06:47;42.25;;;5.20;;
44764;SDS011;30484;52.382;5.260;2023-03-24T06:09:16;49.40;;;5.13;;
44764;SDS011;30484;52.382;5.260;2023-03-24T06:11:46;37.88;;;4.53;;
44764;SDS011;30484;52.382;5.260;2023-03-24T06:14:14;39.03;;;4.85;;
44764;SDS011;30484;52.382;5.260;2023-03-24T06:16:43;39.78;;;5.07;;
44764;SDS011;30484;52.382;5.260;2023-03-24T06:19:11;49.53;;;6.40;;
44764;SDS011;30484;52.382;5.260;2023-03-24T06:21:39;47.75;;;5.32;;
44764;SDS011;30484;52.382;5.260;2023-03-24T06:24:10;40.08;;;5.20;;
44764;SDS011;30484;52.382;5.260;2023-03-24T06:26:40;42.35;;;5.53;;
44764;SDS011;30484;52.382;5.260;2023-03-24T06:29:11;47.20;;;6.18;;
44764;SDS011;30484;52.382;5.260;2023-03-24T06:31:43;41.85;;;5.50;;
44764;SDS011;30484;52.382;5.260;2023-03-24T06:34:11;47.22;;;5.35;;
44764;SDS011;30484;52.382;5.260;2023-03-24T06:36:40;46.92;;;5.65;;
44764;SDS011;30484;52.382;5.260;2023-03-24T06:39:08;35.80;;;5.53;;
44764;SDS011;30484;52.382;5.260;2023-03-24T06:41:37;41.15;;;4.70;;
44764;SDS011;30484;52.382;5.260;2023-03-24T06:44:06;33.55;;;4.72;;
44764;SDS011;30484;52.382;5.260;2023-03-24T06:46:36;37.40;;;4.53;;
44764;SDS011;30484;52.382;5.260;2023-03-24T06:49:05;34.30;;;4.82;;
44764;SDS011;30484;52.382;5.260;2023-03-24T06:51:34;49.00;;;5.38;;
44764;SDS011;30484;52.382;5.260;2023-03-24T06:54:03;40.97;;;4.90;;
44764;SDS011;30484;52.382;5.260;2023-03-24T06:56:31;43.72;;;5.47;;
44764;SDS011;30484;52.382;5.260;2023-03-24T06:59:10;30.27;;;4.93;;
44764;SDS011;30484;52.382;5.260;2023-03-24T07:01:40;37.08;;;4.00;;
44764;SDS011;30484;52.382;5.260;2023-03-24T07:04:08;39.75;;;4.88;;
44764;SDS011;30484;52.382;5.260;2023-03-24T07:06:37;40.00;;;5.38;;
44764;SDS011;30484;52.382;5.260;2023-03-24T07:09:27;40.65;;;5.13;;
44764;SDS011;30484;52.382;5.260;2023-03-24T07:11:56;39.22;;;4.72;;
44764;SDS011;30484;52.382;5.260;2023-03-24T07:14:24;35.88;;;4.70;;
44764;SDS011;30484;52.382;5.260;2023-03-24T07:16:55;40.30;;;5.38;;
44764;SDS011;30484;52.382;5.260;2023-03-24T07:19:24;34.03;;;4.68;;
44764;SDS011;30484;52.382;5.260;2023-03-24T07:21:53;39.65;;;4.80;;
44764;SDS011;30484;52.382;5.260;2023-03-24T07:24:21;36.35;;;4.05;;
44764;SDS011;30484;52.382;5.260;2023-03-24T07:26:50;29.15;;;4.78;;
44764;SDS011;30484;52.382;5.260;2023-03-24T07:29:18;35.97;;;4.63;;
44764;SDS011;30484;52.382;5.260;2023-03-24T07:31:46;30.75;;;4.80;;
44764;SDS011;30484;52.382;5.260;2023-03-24T07:34:20;34.30;;;4.30;;
44764;SDS011;30484;52.382;5.260;2023-03-24T07:36:48;37.08;;;5.20;;
44764;SDS011;30484;52.382;5.260;2023-03-24T07:39:16;28.52;;;4.85;;
44764;SDS011;30484;52.382;5.260;2023-03-24T07:41:46;38.53;;;5.05;;
44764;SDS011;30484;52.382;5.260;2023-03-24T07:44:14;32.70;;;4.88;;
44764;SDS011;30484;52.382;5.260;2023-03-24T07:46:43;38.38;;;5.28;;
44764;SDS011;30484;52.382;5.260;2023-03-24T07:49:11;44.63;;;5.18;;
44764;SDS011;30484;52.382;5.260;2023-03-24T07:51:46;43.35;;;5.35;;
44764;SDS011;30484;52.382;5.260;2023-03-24T07:54:14;35.47;;;4.32;;
44764;SDS011;30484;52.382;5.260;2023-03-24T07:56:43;31.42;;;5.18;;
44764;SDS011;30484;52.382;5.260;2023-03-24T07:59:11;42.78;;;5.20;;
44764;SDS011;30484;52.382;5.260;2023-03-24T08:01:40;34.50;;;5.18;;
44764;SDS011;30484;52.382;5.260;2023-03-24T08:04:09;36.60;;;5.20;;
44764;SDS011;30484;52.382;5.260;2023-03-24T08:06:41;36.85;;;4.93;;
44764;SDS011;30484;52.382;5.260;2023-03-24T08:09:11;30.88;;;5.13;;
44764;SDS011;30484;52.382;5.260;2023-03-24T08:11:40;37.15;;;4.95;;
44764;SDS011;30484;52.382;5.260;2023-03-24T08:14:09;35.95;;;5.03;;
44764;SDS011;30484;52.382;5.260;2023-03-24T08:16:37;37.40;;;5.60;;
44764;SDS011;30484;52.382;5.260;2023-03-24T08:19:05;34.22;;;5.15;;
44764;SDS011;30484;52.382;5.260;2023-03-24T08:21:34;30.30;;;4.45;;
44764;SDS011;30484;52.382;5.260;2023-03-24T08:24:03;39.53;;;5.38;;
44764;SDS011;30484;52.382;5.260;2023-03-24T08:26:34;34.70;;;4.32;;
44764;SDS011;30484;52.382;5.260;2023-03-24T08:29:02;38.38;;;5.18;;
44764;SDS011;30484;52.382;5.260;2023-03-24T08:31:33;42.25;;;5.25;;
44764;SDS011;30484;52.382;5.260;2023-03-24T08:34:02;30.77;;;4.35;;
44764;SDS011;30484;52.382;5.260;2023-03-24T08:36:33;30.70;;;4.20;;
44764;SDS011;30484;52.382;5.260;2023-03-24T08:39:01;26.80;;;4.13;;
44764;SDS011;30484;52.382;5.260;2023-03-24T08:41:34;37.15;;;5.15;;
44764;SDS011;30484;52.382;5.260;2023-03-24T08:44:02;34.22;;;4.60;;
44764;SDS011;30484;52.382;5.260;2023-03-24T08:46:33;36.67;;;4.30;;
44764;SDS011;30484;52.382;5.260;2023-03-24T08:49:04;27.02;;;3.80;;
44764;SDS011;30484;52.382;5.260;2023-03-24T08:51:32;31.90;;;4.22;;
44764;SDS011;30484;52.382;5.260;2023-03-24T08:54:01;41.72;;;5.18;;
44764;SDS011;30484;52.382;5.260;2023-03-24T08:56:31;31.33;;;3.92;;
44764;SDS011;30484;52.382;5.260;2023-03-24T08:59:01;31.33;;;4.20;;
44764;SDS011;30484;52.382;5.260;2023-03-24T09:01:30;32.63;;;4.13;;
44764;SDS011;30484;52.382;5.260;2023-03-24T09:03:59;41.75;;;4.63;;
44764;SDS011;30484;52.382;5.260;2023-03-24T09:06:31;27.52;;;3.95;;
44764;SDS011;30484;52.382;5.260;2023-03-24T09:09:00;33.25;;;3.90;;
44764;SDS011;30484;52.382;5.260;2023-03-24T09:11:29;26.58;;;4.25;;
44764;SDS011;30484;52.382;5.260;2023-03-24T09:13:59;30.92;;;4.03;;
44764;SDS011;30484;52.382;5.260;2023-03-24T09:16:27;29.42;;;3.88;;
44764;SDS011;30484;52.382;5.260;2023-03-24T09:18:56;20.70;;;3.58;;
44764;SDS011;30484;52.382;5.260;2023-03-24T09:21:25;27.52;;;3.60;;
44764;SDS011;30484;52.382;5.260;2023-03-24T09:23:53;22.50;;;3.88;;
44764;SDS011;30484;52.382;5.260;2023-03-24T09:26:21;17.88;;;3.35;;
44764;SDS011;30484;52.382;5.260;2023-03-24T09:28:50;33.00;;;3.60;;
44764;SDS011;30484;52.382;5.260;2023-03-24T09:31:22;32.67;;;3.35;;
44764;SDS011;30484;52.382;5.260;2023-03-24T09:33:50;28.25;;;4.00;;
44764;SDS011;30484;52.382;5.260;2023-03-24T09:36:19;33.03;;;4.05;;
44764;SDS011;30484;52.382;5.260;2023-03-24T09:38:47;27.88;;;4.20;;
44764;SDS011;30484;52.382;5.260;2023-03-24T09:41:17;24.00;;;3.22;;
44764;SDS011;30484;52.382;5.260;2023-03-24T09:43:55;22.48;;;3.30;;
44764;SDS011;30484;52.382;5.260;2023-03-24T09:46:29;25.48;;;3.83;;
44764;SDS011;30484;52.382;5.260;2023-03-24T09:49:07;24.10;;;3.60;;
44764;SDS011;30484;52.382;5.260;2023-03-24T09:51:45;26.70;;;3.97;;
44764;SDS011;30484;52.382;5.260;2023-03-24T09:54:15;27.05;;;3.60;;
44764;SDS011;30484;52.382;5.260;2023-03-24T09:56:48;22.48;;;2.78;;
44764;SDS011;30484;52.382;5.260;2023-03-24T09:59:20;25.85;;;3.40;;
44764;SDS011;30484;52.382;5.260;2023-03-24T10:01:59;24.88;;;3.72;;
44764;SDS011;30484;52.382;5.260;2023-03-24T10:04:29;23.17;;;3.25;;
44764;SDS011;30484;52.382;5.260;2023-03-24T10:06:59;15.85;;;2.97;;
44764;SDS011;30484;52.382;5.260;2023-03-24T10:09:36;19.20;;;2.90;;
44764;SDS011;30484;52.382;5.260;2023-03-24T10:12:16;19.52;;;3.25;;
44764;SDS011;30484;52.382;5.260;2023-03-24T10:15:03;22.00;;;3.10;;
44764;SDS011;30484;52.382;5.260;2023-03-24T10:18:05;21.48;;;2.70;;
44764;SDS011;30484;52.382;5.260;2023-03-24T10:21:05;24.38;;;3.25;;
44764;SDS011;30484;52.382;5.260;2023-03-24T10:23:44;24.50;;;3.75;;
44764;SDS011;30484;52.382;5.260;2023-03-24T10:26:24;21.48;;;3.35;;
44764;SDS011;30484;52.382;5.260;2023-03-24T10:29:08;22.73;;;3.15;;
44764;SDS011;30484;52.382;5.260;2023-03-24T10:31:50;15.30;;;2.63;;
44764;SDS011;30484;52.382;5.260;2023-03-24T10:34:26;23.08;;;3.53;;
44764;SDS011;30484;52.382;5.260;2023-03-24T10:36:59;21.05;;;3.47;;
44764;SDS011;30484;52.382;5.260;2023-03-24T10:39:29;26.05;;;4.18;;
44764;SDS011;30484;52.382;5.260;2023-03-24T10:42:16;25.48;;;4.05;;
44764;SDS011;30484;52.382;5.260;2023-03-24T10:44:48;35.00;;;4.65;;
44764;SDS011;30484;52.382;5.260;2023-03-24T10:47:21;25.75;;;4.20;;
44764;SDS011;30484;52.382;5.260;2023-03-24T10:49:57;23.48;;;3.70;;
44764;SDS011;30484;52.382;5.260;2023-03-24T10:55:14;26.17;;;3.33;;
44764;SDS011;30484;52.382;5.260;2023-03-24T10:57:47;18.80;;;3.15;;
44764;SDS011;30484;52.382;5.260;2023-03-24T11:00:21;21.35;;;3.97;;
44764;SDS011;30484;52.382;5.260;2023-03-24T11:02:55;23.43;;;4.07;;
44764;SDS011;30484;52.382;5.260;2023-03-24T11:05:29;19.52;;;3.85;;
44764;SDS011;30484;52.382;5.260;2023-03-24T11:08:10;16.85;;;3.17;;
44764;SDS011;30484;52.382;5.260;2023-03-24T11:11:12;21.35;;;3.88;;
44764;SDS011;30484;52.382;5.260;2023-03-24T11:14:18;19.88;;;3.10;;
44764;SDS011;30484;52.382;5.260;2023-03-24T11:17:11;20.73;;;3.40;;
44764;SDS011;30484;52.382;5.260;2023-03-24T11:20:03;25.17;;;2.83;;
44764;SDS011;30484;52.382;5.260;2023-03-24T11:23:05;18.27;;;3.30;;
44764;SDS011;30484;52.382;5.260;2023-03-24T11:25:38;15.88;;;3.20;;
44764;SDS011;30484;52.382;5.260;2023-03-24T11:28:13;18.45;;;3.60;;
44764;SDS011;30484;52.382;5.260;2023-03-24T11:30:45;23.27;;;3.25;;
44764;SDS011;30484;52.382;5.260;2023-03-24T11:33:17;17.50;;;2.97;;
44764;SDS011;30484;52.382;5.260;2023-03-24T11:36:01;20.42;;;3.55;;
44764;SDS011;30484;52.382;5.260;2023-03-24T11:39:01;24.33;;;3.80;;
44764;SDS011;30484;52.382;5.260;2023-03-24T11:41:40;15.30;;;3.35;;
44764;SDS011;30484;52.382;5.260;2023-03-24T11:44:15;20.38;;;3.00;;
44764;SDS011;30484;52.382;5.260;2023-03-24T11:46:49;15.32;;;2.67;;
44764;SDS011;30484;52.382;5.260;2023-03-24T11:49:21;19.95;;;3.42;;
44764;SDS011;30484;52.382;5.260;2023-03-24T11:51:55;18.70;;;2.25;;
44764;SDS011;30484;52.382;5.260;2023-03-24T11:54:27;19.75;;;3.13;;
44764;SDS011;30484;52.382;5.260;2023-03-24T11:57:02;20.67;;;3.25;;
44764;SDS011;30484;52.382;5.260;2023-03-24T11:59:36;21.58;;;3.67;;
44764;SDS011;30484;52.382;5.260;2023-03-24T12:02:15;17.98;;;3.25;;
44764;SDS011;30484;52.382;5.260;2023-03-24T12:04:56;18.88;;;3.28;;
44764;SDS011;30484;52.382;5.260;2023-03-24T12:07:44;16.50;;;3.38;;
44764;SDS011;30484;52.382;5.260;2023-03-24T12:10:52;20.92;;;3.53;;
44764;SDS011;30484;52.382;5.260;2023-03-24T12:13:32;19.27;;;3.72;;
44764;SDS011;30484;52.382;5.260;2023-03-24T12:16:13;13.90;;;2.55;;
44764;SDS011;30484;52.382;5.260;2023-03-24T12:19:20;13.13;;;2.78;;
44764;SDS011;30484;52.382;5.260;2023-03-24T12:22:33;15.40;;;3.30;;
44764;SDS011;30484;52.382;5.260;2023-03-24T12:25:17;17.63;;;3.60;;
44764;SDS011;30484;52.382;5.260;2023-03-24T12:28:26;11.93;;;2.53;;
44764;SDS011;30484;52.382;5.260;2023-03-24T12:31:37;18.85;;;2.83;;
44764;SDS011;30484;52.382;5.260;2023-03-24T12:37:46;15.52;;;2.55;;
44764;SDS011;30484;52.382;5.260;2023-03-24T12:43:37;15.40;;;2.63;;
44764;SDS011;30484;52.382;5.260;2023-03-24T12:46:25;14.57;;;1.98;;
44764;SDS011;30484;52.382;5.260;2023-03-24T12:55:30;12.93;;;2.30;;
44764;SDS011;30484;52.382;5.260;2023-03-24T12:58:08;8.68;;;1.73;;
44764;SDS011;30484;52.382;5.260;2023-03-24T13:00:50;8.43;;;1.75;;
44764;SDS011;30484;52.382;5.260;2023-03-24T13:03:30;18.13;;;2.17;;
44764;SDS011;30484;52.382;5.260;2023-03-24T13:06:10;11.32;;;1.75;;
44764;SDS011;30484;52.382;5.260;2023-03-24T13:08:49;10.57;;;2.22;;
44764;SDS011;30484;52.382;5.260;2023-03-24T13:11:38;12.20;;;2.33;;
44764;SDS011;30484;52.382;5.260;2023-03-24T13:14:21;20.92;;;2.83;;
44764;SDS011;30484;52.382;5.260;2023-03-24T13:17:00;17.95;;;2.63;;
44764;SDS011;30484;52.382;5.260;2023-03-24T13:19:34;17.13;;;2.47;;
44764;SDS011;30484;52.382;5.260;2023-03-24T13:22:04;19.48;;;3.30;;
44764;SDS011;30484;52.382;5.260;2023-03-24T13:24:41;17.45;;;3.05;;
44764;SDS011;30484;52.382;5.260;2023-03-24T13:27:11;16.45;;;2.70;;
44764;SDS011;30484;52.382;5.260;2023-03-24T13:29:57;17.30;;;2.60;;
44764;SDS011;30484;52.382;5.260;2023-03-24T13:32:41;17.05;;;2.70;;
44764;SDS011;30484;52.382;5.260;2023-03-24T13:35:18;17.35;;;2.83;;
44764;SDS011;30484;52.382;5.260;2023-03-24T13:38:03;18.52;;;2.78;;
44764;SDS011;30484;52.382;5.260;2023-03-24T13:40:39;15.32;;;2.80;;
44764;SDS011;30484;52.382;5.260;2023-03-24T13:43:10;19.25;;;2.40;;
44764;SDS011;30484;52.382;5.260;2023-03-24T13:45:45;15.70;;;3.08;;
44764;SDS011;30484;52.382;5.260;2023-03-24T13:48:25;20.35;;;3.03;;
44764;SDS011;30484;52.382;5.260;2023-03-24T13:51:00;15.93;;;2.25;;
44764;SDS011;30484;52.382;5.260;2023-03-24T13:53:36;12.52;;;2.65;;
44764;SDS011;30484;52.382;5.260;2023-03-24T13:56:20;18.25;;;2.78;;
44764;SDS011;30484;52.382;5.260;2023-03-24T14:05:33;21.92;;;2.65;;
44764;SDS011;30484;52.382;5.260;2023-03-24T14:08:33;16.85;;;2.78;;
44764;SDS011;30484;52.382;5.260;2023-03-24T14:11:39;13.75;;;2.33;;
44764;SDS011;30484;52.382;5.260;2023-03-24T14:14:18;16.02;;;2.40;;
44764;SDS011;30484;52.382;5.260;2023-03-24T14:16:50;13.30;;;2.10;;
44764;SDS011;30484;52.382;5.260;2023-03-24T14:19:29;17.90;;;2.38;;
44764;SDS011;30484;52.382;5.260;2023-03-24T14:22:12;13.93;;;2.15;;
44764;SDS011;30484;52.382;5.260;2023-03-24T14:24:54;14.38;;;2.33;;
44764;SDS011;30484;52.382;5.260;2023-03-24T14:27:35;12.00;;;2.25;;
44764;SDS011;30484;52.382;5.260;2023-03-24T14:30:15;12.93;;;2.30;;
44764;SDS011;30484;52.382;5.260;2023-03-24T14:32:48;10.52;;;2.15;;
44764;SDS011;30484;52.382;5.260;2023-03-24T14:35:26;11.93;;;2.08;;
44764;SDS011;30484;52.382;5.260;2023-03-24T14:38:02;11.27;;;1.90;;
44764;SDS011;30484;52.382;5.260;2023-03-24T14:40:47;12.43;;;1.77;;
44764;SDS011;30484;52.382;5.260;2023-03-24T14:43:21;13.05;;;1.60;;
44764;SDS011;30484;52.382;5.260;2023-03-24T14:46:01;10.90;;;1.85;;
44764;SDS011;30484;52.382;5.260;2023-03-24T14:48:33;9.75;;;1.75;;
44764;SDS011;30484;52.382;5.260;2023-03-24T14:54:11;10.23;;;1.83;;
44764;SDS011;30484;52.382;5.260;2023-03-24T14:56:45;12.20;;;2.97;;
44764;SDS011;30484;52.382;5.260;2023-03-24T15:02:02;12.48;;;2.17;;
44764;SDS011;30484;52.382;5.260;2023-03-24T15:08:00;7.97;;;2.00;;
44764;SDS011;30484;52.382;5.260;2023-03-24T15:10:47;10.50;;;1.90;;
44764;SDS011;30484;52.382;5.260;2023-03-24T15:13:30;9.65;;;1.98;;
44764;SDS011;30484;52.382;5.260;2023-03-24T15:16:04;8.27;;;1.73;;
44764;SDS011;30484;52.382;5.260;2023-03-24T15:18:44;9.98;;;1.88;;
44764;SDS011;30484;52.382;5.260;2023-03-24T15:21:28;10.85;;;1.95;;
44764;SDS011;30484;52.382;5.260;2023-03-24T15:24:21;9.38;;;2.10;;
44764;SDS011;30484;52.382;5.260;2023-03-24T15:27:09;10.38;;;2.22;;
44764;SDS011;30484;52.382;5.260;2023-03-24T15:29:53;11.73;;;2.38;;
44764;SDS011;30484;52.382;5.260;2023-03-24T15:32:25;8.85;;;1.75;;
44764;SDS011;30484;52.382;5.260;2023-03-24T15:34:58;9.38;;;1.77;;
44764;SDS011;30484;52.382;5.260;2023-03-24T15:37:37;10.98;;;2.63;;
44764;SDS011;30484;52.382;5.260;2023-03-24T15:40:32;14.02;;;3.00;;
44764;SDS011;30484;52.382;5.260;2023-03-24T15:43:05;12.35;;;2.20;;
44764;SDS011;30484;52.382;5.260;2023-03-24T15:45:44;10.55;;;2.33;;
44764;SDS011;30484;52.382;5.260;2023-03-24T15:48:34;11.95;;;2.05;;
44764;SDS011;30484;52.382;5.260;2023-03-24T15:51:12;10.05;;;2.15;;
44764;SDS011;30484;52.382;5.260;2023-03-24T15:53:41;7.95;;;2.03;;
44764;SDS011;30484;52.382;5.260;2023-03-24T15:56:16;15.93;;;2.40;;
44764;SDS011;30484;52.382;5.260;2023-03-24T15:58:52;12.38;;;1.95;;
44764;SDS011;30484;52.382;5.260;2023-03-24T16:01:24;14.63;;;2.50;;
44764;SDS011;30484;52.382;5.260;2023-03-24T16:03:58;11.80;;;2.65;;
44764;SDS011;30484;52.382;5.260;2023-03-24T16:06:29;13.52;;;2.17;;
44764;SDS011;30484;52.382;5.260;2023-03-24T16:09:07;15.32;;;2.70;;
44764;SDS011;30484;52.382;5.260;2023-03-24T16:11:39;14.10;;;2.70;;